sensor_id;sensor_type;location;lat;lon;timestamp;pressure;altitude;pressure_sealevel;temperature;humidity
46111;BME280;31849;55.992;37.252;2022-11-20T00:02:35;99156.47;;;-2.40;67.35
46111;BME280;31849;55.992;37.252;2022-11-20T00:07:39;99151.50;;;-2.37;67.69
46111;BME280;31849;55.992;37.252;2022-11-20T00:12:42;99155.94;;;-2.33;66.98
46111;BME280;31849;55.992;37.252;2022-11-20T00:17:46;99160.31;;;-2.48;67.33
46111;BME280;31849;55.992;37.252;2022-11-20T00:22:51;99162.53;;;-2.36;67.69
46111;BME280;31849;55.992;37.252;2022-11-20T00:27:54;99153.91;;;-2.40;67.16
46111;BME280;31849;55.992;37.252;2022-11-20T00:32:58;99161.88;;;-2.52;67.39
46111;BME280;31849;55.992;37.252;2022-11-20T00:38:02;99162.06;;;-2.47;67.35
46111;BME280;31849;55.992;37.252;2022-11-20T00:43:06;99157.69;;;-2.69;67.95
46111;BME280;31849;55.992;37.252;2022-11-20T00:48:09;99150.19;;;-2.66;68.23
46111;BME280;31849;55.992;37.252;2022-11-20T00:53:14;99153.50;;;-2.69;68.00
46111;BME280;31849;55.992;37.252;2022-11-20T00:58:17;99163.63;;;-2.51;67.87
46111;BME280;31849;55.992;37.252;2022-11-20T01:03:20;99149.56;;;-2.42;67.36
46111;BME280;31849;55.992;37.252;2022-11-20T01:08:31;99149.47;;;-2.24;67.06
46111;BME280;31849;55.992;37.252;2022-11-20T01:13:35;99145.09;;;-2.28;67.29
46111;BME280;31849;55.992;37.252;2022-11-20T01:18:42;99142.94;;;-2.39;67.20
46111;BME280;31849;55.992;37.252;2022-11-20T01:23:48;99147.75;;;-2.25;66.75
46111;BME280;31849;55.992;37.252;2022-11-20T01:28:52;99152.44;;;-2.15;66.50
46111;BME280;31849;55.992;37.252;2022-11-20T01:33:58;99147.81;;;-2.24;66.65
46111;BME280;31849;55.992;37.252;2022-11-20T01:39:06;99164.31;;;-2.35;66.89
46111;BME280;31849;55.992;37.252;2022-11-20T01:44:12;99165.09;;;-2.56;66.79
46111;BME280;31849;55.992;37.252;2022-11-20T01:49:19;99158.94;;;-2.41;66.90
46111;BME280;31849;55.992;37.252;2022-11-20T01:54:27;99168.44;;;-2.57;67.02
46111;BME280;31849;55.992;37.252;2022-11-20T01:59:39;99183.53;;;-2.42;66.64
46111;BME280;31849;55.992;37.252;2022-11-20T02:04:45;99181.00;;;-2.42;66.65
46111;BME280;31849;55.992;37.252;2022-11-20T02:09:51;99174.94;;;-2.24;66.36
46111;BME280;31849;55.992;37.252;2022-11-20T02:14:59;99190.22;;;-2.24;65.51
46111;BME280;31849;55.992;37.252;2022-11-20T02:20:04;99193.78;;;-2.40;66.38
46111;BME280;31849;55.992;37.252;2022-11-20T02:25:09;99185.06;;;-2.45;66.37
46111;BME280;31849;55.992;37.252;2022-11-20T02:30:13;99195.03;;;-2.50;66.20
46111;BME280;31849;55.992;37.252;2022-11-20T02:35:40;99202.38;;;-2.38;66.64
46111;BME280;31849;55.992;37.252;2022-11-20T02:40:45;99199.22;;;-2.33;66.07
46111;BME280;31849;55.992;37.252;2022-11-20T02:45:55;99199.63;;;-2.43;66.06
46111;BME280;31849;55.992;37.252;2022-11-20T02:50:59;99205.19;;;-2.32;66.13
46111;BME280;31849;55.992;37.252;2022-11-20T02:56:05;99211.00;;;-2.35;66.42
46111;BME280;31849;55.992;37.252;2022-11-20T03:01:08;99208.13;;;-2.23;65.25
46111;BME280;31849;55.992;37.252;2022-11-20T03:06:11;99212.16;;;-2.28;65.57
46111;BME280;31849;55.992;37.252;2022-11-20T03:11:17;99208.25;;;-2.20;65.33
46111;BME280;31849;55.992;37.252;2022-11-20T03:16:20;99210.34;;;-2.11;65.48
46111;BME280;31849;55.992;37.252;2022-11-20T03:21:24;99211.44;;;-2.25;65.61
46111;BME280;31849;55.992;37.252;2022-11-20T03:26:29;99203.25;;;-2.18;65.80
46111;BME280;31849;55.992;37.252;2022-11-20T03:31:34;99209.22;;;-2.18;65.15
46111;BME280;31849;55.992;37.252;2022-11-20T03:36:39;99223.28;;;-2.26;65.28
46111;BME280;31849;55.992;37.252;2022-11-20T03:41:44;99217.78;;;-2.16;65.41
46111;BME280;31849;55.992;37.252;2022-11-20T03:46:47;99230.56;;;-2.34;65.49
46111;BME280;31849;55.992;37.252;2022-11-20T03:51:50;99226.66;;;-2.27;65.15
46111;BME280;31849;55.992;37.252;2022-11-20T03:56:55;99225.53;;;-2.32;65.39
46111;BME280;31849;55.992;37.252;2022-11-20T04:01:58;99229.59;;;-2.18;65.01
46111;BME280;31849;55.992;37.252;2022-11-20T04:07:02;99230.59;;;-2.14;65.03
46111;BME280;31849;55.992;37.252;2022-11-20T04:12:07;99230.00;;;-2.28;65.02
46111;BME280;31849;55.992;37.252;2022-11-20T04:17:10;99243.25;;;-2.16;65.44
46111;BME280;31849;55.992;37.252;2022-11-20T04:22:13;99252.97;;;-2.26;65.32
46111;BME280;31849;55.992;37.252;2022-11-20T04:27:18;99245.53;;;-2.22;64.73
46111;BME280;31849;55.992;37.252;2022-11-20T04:32:21;99267.00;;;-2.17;64.53
46111;BME280;31849;55.992;37.252;2022-11-20T04:37:25;99275.91;;;-2.07;64.55
46111;BME280;31849;55.992;37.252;2022-11-20T04:42:30;99275.66;;;-1.93;64.24
46111;BME280;31849;55.992;37.252;2022-11-20T04:47:33;99278.00;;;-1.98;64.64
46111;BME280;31849;55.992;37.252;2022-11-20T04:52:36;99279.31;;;-2.06;64.21
46111;BME280;31849;55.992;37.252;2022-11-20T04:57:41;99295.19;;;-1.94;64.06
46111;BME280;31849;55.992;37.252;2022-11-20T05:02:44;99261.34;;;-2.09;64.01
46111;BME280;31849;55.992;37.252;2022-11-20T05:07:47;99285.13;;;-1.91;63.81
46111;BME280;31849;55.992;37.252;2022-11-20T05:12:52;99294.53;;;-2.08;64.26
46111;BME280;31849;55.992;37.252;2022-11-20T05:17:56;99303.94;;;-2.07;64.14
46111;BME280;31849;55.992;37.252;2022-11-20T05:22:59;99306.69;;;-2.02;64.18
46111;BME280;31849;55.992;37.252;2022-11-20T05:28:05;99325.53;;;-2.18;64.37
46111;BME280;31849;55.992;37.252;2022-11-20T05:33:09;99331.63;;;-2.15;63.95
46111;BME280;31849;55.992;37.252;2022-11-20T05:38:12;99332.22;;;-2.20;64.66
46111;BME280;31849;55.992;37.252;2022-11-20T05:43:17;99324.31;;;-2.07;64.22
46111;BME280;31849;55.992;37.252;2022-11-20T05:48:20;99312.03;;;-2.16;63.76
46111;BME280;31849;55.992;37.252;2022-11-20T05:53:24;99340.19;;;-2.13;64.21
46111;BME280;31849;55.992;37.252;2022-11-20T05:58:30;99339.38;;;-1.93;63.98
46111;BME280;31849;55.992;37.252;2022-11-20T06:03:34;99341.53;;;-1.83;63.65
46111;BME280;31849;55.992;37.252;2022-11-20T06:08:37;99345.44;;;-1.72;63.87
46111;BME280;31849;55.992;37.252;2022-11-20T06:13:42;99357.69;;;-1.83;64.13
46111;BME280;31849;55.992;37.252;2022-11-20T06:18:47;99374.47;;;-1.88;64.12
46111;BME280;31849;55.992;37.252;2022-11-20T06:23:52;99372.34;;;-1.97;64.25
46111;BME280;31849;55.992;37.252;2022-11-20T06:28:57;99379.66;;;-2.04;64.74
46111;BME280;31849;55.992;37.252;2022-11-20T06:34:01;99381.75;;;-1.96;64.54
46111;BME280;31849;55.992;37.252;2022-11-20T06:39:04;99389.09;;;-1.84;63.86
46111;BME280;31849;55.992;37.252;2022-11-20T06:44:09;99392.50;;;-1.83;64.37
46111;BME280;31849;55.992;37.252;2022-11-20T06:49:12;99393.97;;;-1.51;63.33
46111;BME280;31849;55.992;37.252;2022-11-20T06:54:15;99395.06;;;-1.83;64.19
46111;BME280;31849;55.992;37.252;2022-11-20T06:59:20;99395.25;;;-1.41;63.46
46111;BME280;31849;55.992;37.252;2022-11-20T07:04:24;99392.28;;;-1.50;63.56
46111;BME280;31849;55.992;37.252;2022-11-20T07:09:27;99378.06;;;-1.45;63.39
46111;BME280;31849;55.992;37.252;2022-11-20T07:14:32;99373.09;;;-1.42;63.59
46111;BME280;31849;55.992;37.252;2022-11-20T07:19:35;99386.31;;;-1.31;63.11
46111;BME280;31849;55.992;37.252;2022-11-20T07:24:38;99385.13;;;-1.20;62.88
46111;BME280;31849;55.992;37.252;2022-11-20T07:29:48;99384.94;;;-0.84;62.26
46111;BME280;31849;55.992;37.252;2022-11-20T07:34:51;99390.78;;;-0.65;61.51
46111;BME280;31849;55.992;37.252;2022-11-20T07:39:54;99400.50;;;-0.78;61.73
46111;BME280;31849;55.992;37.252;2022-11-20T07:44:59;99407.72;;;-0.89;61.93
46111;BME280;31849;55.992;37.252;2022-11-20T07:50:04;99413.31;;;-0.76;62.29
46111;BME280;31849;55.992;37.252;2022-11-20T07:55:08;99406.78;;;-1.10;62.16
46111;BME280;31849;55.992;37.252;2022-11-20T08:00:15;99407.16;;;-0.81;61.72
46111;BME280;31849;55.992;37.252;2022-11-20T08:05:19;99409.59;;;-0.84;61.66
46111;BME280;31849;55.992;37.252;2022-11-20T08:10:22;99401.88;;;-0.86;61.46
46111;BME280;31849;55.992;37.252;2022-11-20T08:15:27;99407.91;;;-0.63;60.97
46111;BME280;31849;55.992;37.252;2022-11-20T08:20:30;99414.34;;;-0.51;60.66
46111;BME280;31849;55.992;37.252;2022-11-20T08:25:35;99420.94;;;-0.57;61.06
46111;BME280;31849;55.992;37.252;2022-11-20T08:30:40;99427.91;;;-0.31;60.80
46111;BME280;31849;55.992;37.252;2022-11-20T08:35:43;99436.06;;;-0.40;60.73
46111;BME280;31849;55.992;37.252;2022-11-20T08:40:47;99431.00;;;-0.19;60.45
46111;BME280;31849;55.992;37.252;2022-11-20T08:46:05;99442.88;;;-0.62;60.78
46111;BME280;31849;55.992;37.252;2022-11-20T08:51:09;99443.56;;;-0.85;61.68
46111;BME280;31849;55.992;37.252;2022-11-20T08:56:12;99451.47;;;-0.39;60.63
46111;BME280;31849;55.992;37.252;2022-11-20T09:01:17;99466.53;;;-0.45;60.94
46111;BME280;31849;55.992;37.252;2022-11-20T09:06:20;99470.53;;;-0.09;60.08
46111;BME280;31849;55.992;37.252;2022-11-20T09:11:24;99480.72;;;-0.11;59.85
46111;BME280;31849;55.992;37.252;2022-11-20T09:16:30;99495.44;;;-0.26;60.34
46111;BME280;31849;55.992;37.252;2022-11-20T09:21:33;99494.28;;;-0.33;60.14
46111;BME280;31849;55.992;37.252;2022-11-20T09:26:36;99510.66;;;-0.49;60.90
46111;BME280;31849;55.992;37.252;2022-11-20T09:31:42;99520.59;;;-0.55;60.99
46111;BME280;31849;55.992;37.252;2022-11-20T09:36:45;99539.66;;;-0.27;59.97
46111;BME280;31849;55.992;37.252;2022-11-20T09:41:59;99529.47;;;-0.06;60.06
46111;BME280;31849;55.992;37.252;2022-11-20T09:47:14;99540.09;;;0.03;60.24
46111;BME280;31849;55.992;37.252;2022-11-20T09:52:24;99535.13;;;-0.13;60.49
46111;BME280;31849;55.992;37.252;2022-11-20T09:57:35;99537.09;;;0.13;60.04
46111;BME280;31849;55.992;37.252;2022-11-20T10:02:44;99533.53;;;0.10;60.09
46111;BME280;31849;55.992;37.252;2022-11-20T10:07:53;99539.13;;;0.22;60.05
46111;BME280;31849;55.992;37.252;2022-11-20T10:13:12;99536.69;;;0.25;60.05
46111;BME280;31849;55.992;37.252;2022-11-20T10:18:29;99546.28;;;0.31;60.22
46111;BME280;31849;55.992;37.252;2022-11-20T10:24:00;99547.41;;;0.38;59.94
46111;BME280;31849;55.992;37.252;2022-11-20T10:29:11;99554.53;;;0.24;60.84
46111;BME280;31849;55.992;37.252;2022-11-20T10:34:24;99552.44;;;0.13;61.07
46111;BME280;31849;55.992;37.252;2022-11-20T10:39:35;99547.09;;;0.09;61.05
46111;BME280;31849;55.992;37.252;2022-11-20T10:44:43;99556.91;;;-0.02;61.53
46111;BME280;31849;55.992;37.252;2022-11-20T10:50:16;99555.13;;;0.16;61.13
46111;BME280;31849;55.992;37.252;2022-11-20T10:55:29;99566.69;;;0.08;61.56
46111;BME280;31849;55.992;37.252;2022-11-20T11:00:33;99559.41;;;0.17;61.25
46111;BME280;31849;55.992;37.252;2022-11-20T11:05:41;99565.16;;;0.33;61.07
46111;BME280;31849;55.992;37.252;2022-11-20T11:10:47;99577.50;;;0.43;60.98
46111;BME280;31849;55.992;37.252;2022-11-20T11:15:55;99580.22;;;0.48;60.83
46111;BME280;31849;55.992;37.252;2022-11-20T11:21:02;99580.59;;;0.57;60.51
46111;BME280;31849;55.992;37.252;2022-11-20T11:26:17;99584.56;;;0.50;60.37
46111;BME280;31849;55.992;37.252;2022-11-20T11:31:25;99585.75;;;0.59;59.66
46111;BME280;31849;55.992;37.252;2022-11-20T11:36:32;99593.16;;;0.51;59.50
46111;BME280;31849;55.992;37.252;2022-11-20T11:41:36;99578.53;;;0.48;59.49
46111;BME280;31849;55.992;37.252;2022-11-20T11:46:43;99587.66;;;0.42;59.38
46111;BME280;31849;55.992;37.252;2022-11-20T11:52:00;99593.16;;;0.51;59.52
46111;BME280;31849;55.992;37.252;2022-11-20T11:57:11;99598.94;;;0.47;59.20
46111;BME280;31849;55.992;37.252;2022-11-20T12:02:29;99596.88;;;0.38;58.92
46111;BME280;31849;55.992;37.252;2022-11-20T12:07:39;99594.94;;;0.32;59.53
46111;BME280;31849;55.992;37.252;2022-11-20T12:12:53;99601.81;;;0.12;59.37
46111;BME280;31849;55.992;37.252;2022-11-20T12:17:57;99598.19;;;0.07;59.74
46111;BME280;31849;55.992;37.252;2022-11-20T12:23:09;99611.09;;;0.10;59.65
46111;BME280;31849;55.992;37.252;2022-11-20T12:28:33;99612.28;;;-0.03;59.91
46111;BME280;31849;55.992;37.252;2022-11-20T12:34:00;99608.63;;;-0.08;59.96
46111;BME280;31849;55.992;37.252;2022-11-20T12:39:35;99596.47;;;-0.13;59.75
46111;BME280;31849;55.992;37.252;2022-11-20T12:50:30;99610.25;;;-0.10;59.85
46111;BME280;31849;55.992;37.252;2022-11-20T12:56:03;99608.31;;;-0.15;60.01
46111;BME280;31849;55.992;37.252;2022-11-20T13:01:25;99619.25;;;-0.18;60.29
46111;BME280;31849;55.992;37.252;2022-11-20T13:06:44;99613.97;;;-0.23;60.07
46111;BME280;31849;55.992;37.252;2022-11-20T13:11:56;99627.91;;;-0.16;59.79
46111;BME280;31849;55.992;37.252;2022-11-20T13:17:05;99632.09;;;-0.16;60.08
46111;BME280;31849;55.992;37.252;2022-11-20T13:22:12;99632.44;;;-0.28;60.08
46111;BME280;31849;55.992;37.252;2022-11-20T13:27:28;99637.56;;;-0.28;60.08
46111;BME280;31849;55.992;37.252;2022-11-20T13:32:33;99639.13;;;-0.32;59.80
46111;BME280;31849;55.992;37.252;2022-11-20T13:37:37;99643.31;;;-0.34;60.65
46111;BME280;31849;55.992;37.252;2022-11-20T13:42:45;99646.19;;;-0.26;60.25
46111;BME280;31849;55.992;37.252;2022-11-20T13:47:49;99644.03;;;-0.37;60.37
46111;BME280;31849;55.992;37.252;2022-11-20T13:52:57;99654.78;;;-0.44;60.37
46111;BME280;31849;55.992;37.252;2022-11-20T13:58:27;99666.16;;;-0.37;60.68
46111;BME280;31849;55.992;37.252;2022-11-20T14:03:35;99655.84;;;-0.39;60.39
46111;BME280;31849;55.992;37.252;2022-11-20T14:08:59;99662.38;;;-0.45;60.17
46111;BME280;31849;55.992;37.252;2022-11-20T14:14:13;99666.63;;;-0.46;60.54
46111;BME280;31849;55.992;37.252;2022-11-20T14:19:28;99661.22;;;-0.52;60.39
46111;BME280;31849;55.992;37.252;2022-11-20T14:24:33;99680.13;;;-0.48;60.44
46111;BME280;31849;55.992;37.252;2022-11-20T14:29:38;99676.91;;;-0.44;60.27
46111;BME280;31849;55.992;37.252;2022-11-20T14:34:45;99674.53;;;-0.59;60.69
46111;BME280;31849;55.992;37.252;2022-11-20T14:39:51;99696.09;;;-0.52;60.52
46111;BME280;31849;55.992;37.252;2022-11-20T14:44:57;99692.81;;;-0.50;60.49
46111;BME280;31849;55.992;37.252;2022-11-20T14:50:02;99683.78;;;-0.61;60.15
46111;BME280;31849;55.992;37.252;2022-11-20T14:55:13;99696.38;;;-0.46;60.48
46111;BME280;31849;55.992;37.252;2022-11-20T15:00:30;99695.66;;;-0.44;60.37
46111;BME280;31849;55.992;37.252;2022-11-20T15:05:48;99696.09;;;-0.52;60.20
46111;BME280;31849;55.992;37.252;2022-11-20T15:10:52;99696.84;;;-0.55;60.50
46111;BME280;31849;55.992;37.252;2022-11-20T15:15:59;99681.56;;;-0.54;60.33
46111;BME280;31849;55.992;37.252;2022-11-20T15:21:08;99684.00;;;-0.57;60.11
46111;BME280;31849;55.992;37.252;2022-11-20T15:26:15;99688.75;;;-0.64;60.43
46111;BME280;31849;55.992;37.252;2022-11-20T15:31:23;99692.28;;;-0.62;60.37
46111;BME280;31849;55.992;37.252;2022-11-20T15:36:27;99691.31;;;-0.64;60.41
46111;BME280;31849;55.992;37.252;2022-11-20T15:41:30;99691.81;;;-0.72;60.21
46111;BME280;31849;55.992;37.252;2022-11-20T15:46:38;99669.59;;;-0.74;60.08
46111;BME280;31849;55.992;37.252;2022-11-20T15:51:45;99696.34;;;-0.66;59.68
46111;BME280;31849;55.992;37.252;2022-11-20T15:56:50;99685.00;;;-0.73;60.23
46111;BME280;31849;55.992;37.252;2022-11-20T16:01:57;99686.94;;;-0.67;60.28
46111;BME280;31849;55.992;37.252;2022-11-20T16:07:01;99696.06;;;-0.72;60.10
46111;BME280;31849;55.992;37.252;2022-11-20T16:12:05;99703.00;;;-0.69;60.49
46111;BME280;31849;55.992;37.252;2022-11-20T16:17:10;99697.97;;;-0.68;60.29
46111;BME280;31849;55.992;37.252;2022-11-20T16:22:14;99692.66;;;-0.73;60.09
46111;BME280;31849;55.992;37.252;2022-11-20T16:27:17;99705.34;;;-0.74;59.92
46111;BME280;31849;55.992;37.252;2022-11-20T16:32:22;99699.22;;;-0.78;60.09
46111;BME280;31849;55.992;37.252;2022-11-20T16:37:26;99692.19;;;-0.82;60.14
46111;BME280;31849;55.992;37.252;2022-11-20T16:42:33;99680.53;;;-0.77;60.38
46111;BME280;31849;55.992;37.252;2022-11-20T16:47:38;99677.25;;;-0.92;60.06
46111;BME280;31849;55.992;37.252;2022-11-20T16:52:41;99687.78;;;-0.86;59.80
46111;BME280;31849;55.992;37.252;2022-11-20T16:57:44;99696.09;;;-0.90;60.30
46111;BME280;31849;55.992;37.252;2022-11-20T17:02:48;99709.06;;;-0.85;60.16
46111;BME280;31849;55.992;37.252;2022-11-20T17:07:52;99716.28;;;-0.95;60.32
46111;BME280;31849;55.992;37.252;2022-11-20T17:12:55;99730.00;;;-1.11;60.85
46111;BME280;31849;55.992;37.252;2022-11-20T17:18:00;99709.44;;;-0.96;60.47
46111;BME280;31849;55.992;37.252;2022-11-20T17:23:04;99712.91;;;-0.94;60.20
46111;BME280;31849;55.992;37.252;2022-11-20T17:28:07;99704.41;;;-0.94;60.25
46111;BME280;31849;55.992;37.252;2022-11-20T17:33:12;99711.19;;;-0.95;60.42
46111;BME280;31849;55.992;37.252;2022-11-20T17:38:16;99725.09;;;-0.88;60.13
46111;BME280;31849;55.992;37.252;2022-11-20T17:43:19;99722.75;;;-0.83;59.85
46111;BME280;31849;55.992;37.252;2022-11-20T17:48:24;99724.09;;;-0.74;59.57
46111;BME280;31849;55.992;37.252;2022-11-20T17:53:32;99713.16;;;-0.71;59.73
46111;BME280;31849;55.992;37.252;2022-11-20T17:58:36;99720.88;;;-0.69;59.81
46111;BME280;31849;55.992;37.252;2022-11-20T18:03:43;99704.25;;;-0.79;59.76
46111;BME280;31849;55.992;37.252;2022-11-20T18:08:47;99706.88;;;-0.96;60.24
46111;BME280;31849;55.992;37.252;2022-11-20T18:13:52;99702.84;;;-0.91;60.34
46111;BME280;31849;55.992;37.252;2022-11-20T18:19:16;99694.41;;;-0.90;60.09
46111;BME280;31849;55.992;37.252;2022-11-20T18:24:20;99684.78;;;-0.95;59.90
46111;BME280;31849;55.992;37.252;2022-11-20T18:29:24;99688.28;;;-0.93;59.70
46111;BME280;31849;55.992;37.252;2022-11-20T18:34:30;99698.66;;;-0.90;59.65
46111;BME280;31849;55.992;37.252;2022-11-20T18:39:34;99696.97;;;-0.90;60.07
46111;BME280;31849;55.992;37.252;2022-11-20T18:44:39;99710.38;;;-0.94;60.02
46111;BME280;31849;55.992;37.252;2022-11-20T18:49:58;99729.63;;;-0.82;60.46
46111;BME280;31849;55.992;37.252;2022-11-20T18:55:05;99725.81;;;-0.91;59.99
46111;BME280;31849;55.992;37.252;2022-11-20T19:00:08;99723.06;;;-0.77;60.02
46111;BME280;31849;55.992;37.252;2022-11-20T19:05:14;99729.69;;;-0.81;60.55
46111;BME280;31849;55.992;37.252;2022-11-20T19:10:18;99720.44;;;-0.79;60.23
46111;BME280;31849;55.992;37.252;2022-11-20T19:15:22;99711.91;;;-0.79;60.23
46111;BME280;31849;55.992;37.252;2022-11-20T19:20:27;99704.16;;;-0.81;60.16
46111;BME280;31849;55.992;37.252;2022-11-20T19:25:30;99699.50;;;-0.90;60.66
46111;BME280;31849;55.992;37.252;2022-11-20T19:30:39;99698.72;;;-0.89;60.43
46111;BME280;31849;55.992;37.252;2022-11-20T19:35:44;99695.19;;;-0.91;60.44
46111;BME280;31849;55.992;37.252;2022-11-20T19:40:47;99700.84;;;-0.98;60.74
46111;BME280;31849;55.992;37.252;2022-11-20T19:45:51;99694.19;;;-0.94;60.46
46111;BME280;31849;55.992;37.252;2022-11-20T19:50:55;99693.84;;;-1.02;60.62
46111;BME280;31849;55.992;37.252;2022-11-20T19:55:59;99688.88;;;-1.17;60.28
46111;BME280;31849;55.992;37.252;2022-11-20T20:01:07;99690.03;;;-1.10;60.55
46111;BME280;31849;55.992;37.252;2022-11-20T20:06:14;99688.94;;;-1.15;60.40
46111;BME280;31849;55.992;37.252;2022-11-20T20:11:19;99683.84;;;-1.15;60.35
46111;BME280;31849;55.992;37.252;2022-11-20T20:16:24;99676.03;;;-1.18;60.64
46111;BME280;31849;55.992;37.252;2022-11-20T20:21:31;99687.75;;;-1.22;60.51
46111;BME280;31849;55.992;37.252;2022-11-20T20:26:35;99713.88;;;-1.28;60.68
46111;BME280;31849;55.992;37.252;2022-11-20T20:31:38;99712.69;;;-1.16;60.54
46111;BME280;31849;55.992;37.252;2022-11-20T20:36:43;99707.16;;;-1.08;60.70
46111;BME280;31849;55.992;37.252;2022-11-20T20:41:46;99707.66;;;-0.97;59.31
46111;BME280;31849;55.992;37.252;2022-11-20T20:46:50;99692.13;;;-1.01;60.28
46111;BME280;31849;55.992;37.252;2022-11-20T20:51:55;99710.38;;;-1.12;60.59
46111;BME280;31849;55.992;37.252;2022-11-20T20:56:59;99706.09;;;-1.13;60.28
46111;BME280;31849;55.992;37.252;2022-11-20T21:02:02;99705.47;;;-1.07;60.13
46111;BME280;31849;55.992;37.252;2022-11-20T21:07:07;99706.59;;;-1.02;60.32
46111;BME280;31849;55.992;37.252;2022-11-20T21:12:12;99718.16;;;-1.09;60.27
46111;BME280;31849;55.992;37.252;2022-11-20T21:17:15;99726.72;;;-1.08;60.03
46111;BME280;31849;55.992;37.252;2022-11-20T21:22:20;99718.63;;;-0.99;59.97
46111;BME280;31849;55.992;37.252;2022-11-20T21:27:23;99724.03;;;-1.11;60.31
46111;BME280;31849;55.992;37.252;2022-11-20T21:32:27;99729.78;;;-1.15;60.21
46111;BME280;31849;55.992;37.252;2022-11-20T21:37:31;99729.41;;;-1.05;60.06
46111;BME280;31849;55.992;37.252;2022-11-20T21:42:41;99710.50;;;-1.09;60.20
46111;BME280;31849;55.992;37.252;2022-11-20T21:47:47;99715.03;;;-1.03;59.89
46111;BME280;31849;55.992;37.252;2022-11-20T21:52:52;99691.94;;;-1.06;59.91
46111;BME280;31849;55.992;37.252;2022-11-20T21:57:55;99705.41;;;-1.09;60.14
46111;BME280;31849;55.992;37.252;2022-11-20T22:02:59;99721.84;;;-1.03;59.99
46111;BME280;31849;55.992;37.252;2022-11-20T22:08:04;99720.56;;;-1.12;60.10
46111;BME280;31849;55.992;37.252;2022-11-20T22:13:07;99716.88;;;-1.18;60.31
46111;BME280;31849;55.992;37.252;2022-11-20T22:18:28;99679.44;;;-1.36;60.46
46111;BME280;31849;55.992;37.252;2022-11-20T22:23:33;99711.06;;;-1.32;60.81
46111;BME280;31849;55.992;37.252;2022-11-20T22:28:37;99711.81;;;-1.35;60.73
46111;BME280;31849;55.992;37.252;2022-11-20T22:33:41;99704.50;;;-1.45;61.04
46111;BME280;31849;55.992;37.252;2022-11-20T22:38:46;99701.63;;;-1.35;60.78
46111;BME280;31849;55.992;37.252;2022-11-20T22:43:53;99721.91;;;-1.20;60.89
46111;BME280;31849;55.992;37.252;2022-11-20T22:48:58;99714.97;;;-1.22;60.99
46111;BME280;31849;55.992;37.252;2022-11-20T22:54:03;99718.16;;;-1.27;61.04
46111;BME280;31849;55.992;37.252;2022-11-20T22:59:07;99689.31;;;-1.26;60.79
46111;BME280;31849;55.992;37.252;2022-11-20T23:04:10;99694.91;;;-1.15;60.82
46111;BME280;31849;55.992;37.252;2022-11-20T23:09:15;99691.22;;;-1.21;60.85
46111;BME280;31849;55.992;37.252;2022-11-20T23:14:19;99676.81;;;-1.37;61.30
46111;BME280;31849;55.992;37.252;2022-11-20T23:19:28;99679.44;;;-1.36;61.22
46111;BME280;31849;55.992;37.252;2022-11-20T23:24:33;99664.00;;;-1.21;61.23
46111;BME280;31849;55.992;37.252;2022-11-20T23:29:36;99661.75;;;-1.33;60.79
46111;BME280;31849;55.992;37.252;2022-11-20T23:34:39;99665.91;;;-1.35;61.26
46111;BME280;31849;55.992;37.252;2022-11-20T23:39:43;99666.19;;;-1.29;61.41
46111;BME280;31849;55.992;37.252;2022-11-20T23:44:47;99666.47;;;-1.22;61.16
46111;BME280;31849;55.992;37.252;2022-11-20T23:49:50;99647.91;;;-1.20;61.05
46111;BME280;31849;55.992;37.252;2022-11-20T23:54:55;99650.38;;;-1.21;61.27
46111;BME280;31849;55.992;37.252;2022-11-20T23:59:58;99658.69;;;-1.26;61.15
